Stronghurst, Illinois
Current Conditions -  °F | °C
As of 10:53 AM on Thursday 30 Oct 2014 (Local Time) from KBRL Reporting Station
Overcast Overcast  
Wind Chill: 45°   Ceiling: 8000
Heat Index: 47°   Visibility: 10mi
Dew Point: 38°   Wind: 5mph
Humidity: 71%   Direction: 100°E
Pressure: 30.07"   Gusts: NA
Location:  40.75°N, 90.9°W
Report Text: KBRL 301553Z AUTO 10004KT 10SM OVC080 08/03 A3007 RMK AO2 SLP187 T00830033
Loading
Personal Weather Stations






























Interactive Weather Map
Tropical Storm Tracking
New forecast layout! Learn more

10-Day Weather Forecast

Advertisements
Track Severe Weather on mobile